Time;durP1;ratioP1;P1;durP2;ratioP2;P2;SDS_P1;SDS_P2;PMS_P1;PMS_P2;Temp;Humidity;BMP_temperature;BMP_pressure;BME280_temperature;BME280_humidity;BME280_pressure;Samples;Min_cycle;Max_cycle;Signal;HPM_P1;HPM_P2
2023/03/09 00:02:49;;;;;;;13.00;8.30;;;;;;;2.21;76.46;98139.43;130496;1269;107528;-77
2023/03/09 00:05:59;;;;;;;13.50;8.60;;;;;;;2.15;76.25;98136.11;130468;1258;107501;-77
2023/03/09 00:09:07;;;;;;;10.10;6.30;;;;;;;2.18;76.37;98133.21;130640;1269;107554;-77
2023/03/09 00:12:13;;;;;;;10.20;6.70;;;;;;;2.21;76.18;98131.45;130588;1258;107378;-77
2023/03/09 00:15:19;;;;;;;13.30;7.10;;;;;;;2.26;76.27;98132.95;130509;1261;106680;-76
2023/03/09 00:18:25;;;;;;;10.40;7.60;;;;;;;2.27;76.39;98129.83;130540;1260;107544;-76
2023/03/09 00:21:36;;;;;;;12.90;8.00;;;;;;;2.23;76.41;98123.18;130733;1269;108242;-75
2023/03/09 00:24:46;;;;;;;11.20;7.00;;;;;;;2.20;76.41;98120.02;130645;1261;107367;-76
2023/03/09 00:27:53;;;;;;;12.20;7.50;;;;;;;2.14;76.70;98114.59;130637;1261;107436;-77
2023/03/09 00:31:03;;;;;;;13.20;7.80;;;;;;;2.10;76.62;98112.37;130679;1262;107952;-76
2023/03/09 00:34:10;;;;;;;13.00;8.60;;;;;;;2.09;76.55;98106.17;130537;1260;107584;-76
2023/03/09 00:37:15;;;;;;;14.40;9.10;;;;;;;2.06;77.20;98107.74;130510;1262;107233;-77
2023/03/09 00:40:21;;;;;;;14.70;9.00;;;;;;;1.97;77.11;98107.00;130363;1263;107507;-78
2023/03/09 00:43:27;;;;;;;15.80;8.80;;;;;;;1.95;77.21;98105.45;130502;1269;107399;-76
2023/03/09 00:46:33;;;;;;;11.70;7.70;;;;;;;1.98;77.12;98104.66;130341;1261;107541;-76
2023/03/09 00:49:39;;;;;;;13.90;8.80;;;;;;;2.03;76.91;98106.77;130532;1259;107473;-77
2023/03/09 00:52:45;;;;;;;14.20;9.00;;;;;;;2.09;77.09;98104.58;130435;1261;107476;-77
2023/03/09 00:55:50;;;;;;;13.20;8.40;;;;;;;2.10;77.16;98102.92;130505;1261;107536;-76
2023/03/09 00:58:57;;;;;;;12.80;8.60;;;;;;;2.06;77.04;98095.76;130494;1260;107493;-77
2023/03/09 01:02:02;;;;;;;13.30;8.60;;;;;;;2.05;76.98;98095.18;130435;1257;107596;-78
2023/03/09 01:05:10;;;;;;;13.50;9.10;;;;;;;2.03;77.03;98093.65;130544;1271;108236;-76
2023/03/09 01:08:16;;;;;;;15.10;9.40;;;;;;;2.01;77.12;98095.21;130474;1261;107538;-78
2023/03/09 01:11:22;;;;;;;16.20;9.90;;;;;;;1.99;77.17;98089.45;130532;1260;107553;-76
2023/03/09 01:14:29;;;;;;;16.20;10.20;;;;;;;1.99;77.12;98092.08;130696;1261;107457;-76
2023/03/09 01:17:35;;;;;;;16.40;10.50;;;;;;;1.97;77.19;98093.85;130566;1258;107582;-77
2023/03/09 01:20:41;;;;;;;21.10;12.00;;;;;;;1.97;77.26;98096.83;130677;1257;107483;-75
2023/03/09 01:23:47;;;;;;;15.50;9.30;;;;;;;2.00;77.36;98102.39;130647;1260;107412;-78
2023/03/09 01:26:53;;;;;;;17.10;10.30;;;;;;;2.05;77.32;98104.71;130500;1261;105897;-76
2023/03/09 01:29:58;;;;;;;15.50;10.30;;;;;;;2.10;77.36;98102.42;130574;1260;107551;-77
2023/03/09 01:33:04;;;;;;;17.50;11.00;;;;;;;2.16;77.27;98101.09;130718;1260;107360;-77
2023/03/09 01:36:15;;;;;;;18.60;11.10;;;;;;;2.20;77.09;98097.70;130428;1263;107532;-77
2023/03/09 01:39:20;;;;;;;16.70;10.90;;;;;;;2.21;77.09;98093.40;130591;1261;107489;-76
2023/03/09 01:42:26;;;;;;;18.80;11.50;;;;;;;2.19;77.03;98095.45;130491;1260;109518;-78
2023/03/09 01:46:07;;;;;;;34.60;20.90;;;;;;;2.16;77.20;98093.73;130534;1269;107475;-76
2023/03/09 01:49:19;;;;;;;19.40;12.50;;;;;;;2.15;77.31;98094.92;130555;1260;107414;-77
2023/03/09 01:52:28;;;;;;;19.30;12.30;;;;;;;2.12;77.26;98086.79;130351;1258;107936;-77
2023/03/09 01:55:39;;;;;;;21.60;13.20;;;;;;;2.09;77.40;98082.02;130518;1257;105692;-77
2023/03/09 01:58:45;;;;;;;21.70;13.10;;;;;;;2.07;77.44;98085.49;130376;1260;106483;-76
2023/03/09 02:01:54;;;;;;;17.90;10.20;;;;;;;2.07;77.56;98090.59;130675;1261;105989;-76
2023/03/09 02:05:04;;;;;;;19.80;11.80;;;;;;;2.09;77.62;98093.59;130425;1271;106892;-76
2023/03/09 02:08:11;;;;;;;20.30;12.30;;;;;;;2.11;77.47;98088.83;130718;1258;108768;-75
2023/03/09 02:11:19;;;;;;;19.40;11.80;;;;;;;2.13;77.66;98089.79;130634;1260;107592;-76
2023/03/09 02:14:26;;;;;;;20.80;12.40;;;;;;;2.13;77.56;98084.56;130508;1257;107611;-75
2023/03/09 02:17:31;;;;;;;21.10;12.50;;;;;;;2.12;77.44;98090.77;130597;1260;107576;-77
2023/03/09 02:20:44;;;;;;;18.60;12.10;;;;;;;2.10;77.68;98100.30;130520;1261;107255;-77
2023/03/09 02:23:58;;;;;;;17.50;11.00;;;;;;;2.08;77.86;98105.38;130353;1258;108671;-77
2023/03/09 02:27:13;;;;;;;18.10;11.40;;;;;;;2.03;77.81;98092.77;130377;1263;107666;-78
2023/03/09 02:30:21;;;;;;;18.90;11.60;;;;;;;1.99;77.72;98090.23;130472;1259;107404;-78
2023/03/09 02:33:28;;;;;;;19.50;12.20;;;;;;;1.96;77.82;98086.21;130532;1260;107638;-77
2023/03/09 02:36:35;;;;;;;16.40;9.70;;;;;;;1.99;77.85;98089.64;130468;1262;107547;-77
2023/03/09 02:39:45;;;;;;;18.00;11.30;;;;;;;2.02;77.73;98086.71;130653;1260;107550;-77
2023/03/09 02:42:52;;;;;;;18.10;12.00;;;;;;;2.04;77.80;98081.40;130642;1260;107449;-76
2023/03/09 02:45:59;;;;;;;18.70;11.40;;;;;;;2.05;77.92;98086.92;130414;1261;107391;-76
2023/03/09 02:49:05;;;;;;;18.30;11.00;;;;;;;2.05;77.76;98091.73;130436;1261;106504;-77
2023/03/09 02:52:11;;;;;;;17.40;10.70;;;;;;;2.02;77.79;98086.55;130499;1261;107525;-76
2023/03/09 02:55:17;;;;;;;17.90;10.60;;;;;;;2.00;77.94;98084.67;130491;1261;107414;-77
2023/03/09 02:58:23;;;;;;;15.80;9.70;;;;;;;2.00;77.86;98092.24;130571;1260;107595;-78
2023/03/09 03:01:30;;;;;;;15.10;9.80;;;;;;;1.96;77.84;98091.88;130483;1260;107549;-77
2023/03/09 03:04:35;;;;;;;15.40;9.90;;;;;;;1.91;78.08;98095.66;130465;1271;107188;-76
2023/03/09 03:07:42;;;;;;;20.40;11.50;;;;;;;1.86;78.20;98104.79;130480;1261;107582;-76
2023/03/09 03:10:48;;;;;;;17.40;10.70;;;;;;;1.83;78.14;98107.39;130525;1267;106377;-76
2023/03/09 03:13:55;;;;;;;13.90;8.20;;;;;;;1.82;78.21;98100.97;130567;1260;106473;-76
2023/03/09 03:17:01;;;;;;;13.70;9.40;;;;;;;1.83;78.15;98101.17;130519;1261;106506;-75
2023/03/09 03:20:14;;;;;;;13.40;8.90;;;;;;;1.89;78.20;98107.98;130650;1260;107524;-74
2023/03/09 03:23:20;;;;;;;12.80;8.90;;;;;;;1.95;78.17;98104.93;130662;1260;107465;-77
2023/03/09 03:26:29;;;;;;;13.30;8.40;;;;;;;1.96;78.07;98109.41;130413;1261;106420;-76
2023/03/09 03:29:36;;;;;;;14.40;9.50;;;;;;;1.95;77.99;98114.59;130743;1261;107497;-75
2023/03/09 03:32:43;;;;;;;13.80;9.40;;;;;;;1.93;77.95;98113.36;130671;1256;107504;-74
2023/03/09 03:35:50;;;;;;;12.40;8.40;;;;;;;1.90;78.17;98112.42;130710;1258;107433;-75
2023/03/09 03:38:56;;;;;;;11.20;8.20;;;;;;;1.86;78.06;98122.82;130678;1260;107384;-75
2023/03/09 03:42:02;;;;;;;14.60;8.90;;;;;;;1.82;78.14;98125.88;130701;1261;107420;-75
2023/03/09 03:45:10;;;;;;;11.70;8.30;;;;;;;1.79;78.25;98115.11;130685;1261;107383;-74
2023/03/09 03:48:17;;;;;;;10.30;7.30;;;;;;;1.81;78.35;98107.04;130748;1261;108153;-74
2023/03/09 03:51:22;;;;;;;14.40;8.30;;;;;;;1.84;78.32;98101.98;130654;1260;107467;-76
2023/03/09 03:54:30;;;;;;;19.40;11.10;;;;;;;1.87;78.18;98096.27;130432;1256;108137;-75
2023/03/09 03:57:37;;;;;;;14.40;9.60;;;;;;;1.88;78.19;98086.00;130776;1261;107440;-75
2023/03/09 04:00:43;;;;;;;13.50;9.20;;;;;;;1.87;78.26;98095.56;130452;1261;107486;-76
2023/03/09 04:03:51;;;;;;;13.10;8.50;;;;;;;1.87;78.40;98104.86;130661;1260;107556;-74
2023/03/09 04:06:57;;;;;;;13.00;8.60;;;;;;;1.85;78.28;98104.88;130703;1260;107577;-74
2023/03/09 04:10:07;;;;;;;15.20;10.00;;;;;;;1.83;78.43;98105.95;130713;1261;107505;-75
2023/03/09 04:13:17;;;;;;;13.40;9.10;;;;;;;1.80;78.45;98111.34;130653;1260;107557;-76
2023/03/09 04:16:24;;;;;;;16.10;10.20;;;;;;;1.75;78.50;98122.10;130484;1260;107468;-77
2023/03/09 04:19:30;;;;;;;16.40;9.80;;;;;;;1.73;78.60;98131.95;130597;1261;107463;-76
2023/03/09 04:22:37;;;;;;;14.20;9.10;;;;;;;1.73;78.84;98142.14;130584;1260;107563;-76
2023/03/09 04:25:42;;;;;;;17.40;10.20;;;;;;;1.71;78.91;98147.08;130580;1256;107409;-76
2023/03/09 04:28:48;;;;;;;15.80;10.00;;;;;;;1.74;78.78;98146.64;130407;1261;107203;-76
2023/03/09 04:31:57;;;;;;;17.30;10.60;;;;;;;1.79;78.83;98143.52;130663;1256;107433;-76
2023/03/09 04:35:03;;;;;;;18.50;11.90;;;;;;;1.85;78.78;98139.56;130624;1258;107612;-77
2023/03/09 04:38:09;;;;;;;15.80;10.40;;;;;;;1.88;78.52;98132.27;130599;1261;139991;-75
2023/03/09 04:41:17;;;;;;;17.20;11.50;;;;;;;1.85;78.63;98119.47;130694;1258;107691;-75
2023/03/09 04:44:28;;;;;;;20.40;12.50;;;;;;;1.81;78.64;98110.40;130603;1260;107430;-76
2023/03/09 04:47:35;;;;;;;19.80;11.70;;;;;;;1.77;78.82;98102.30;130605;1256;107403;-76
2023/03/09 04:50:41;;;;;;;15.60;10.00;;;;;;;1.70;78.85;98106.52;130578;1261;106428;-74
2023/03/09 04:53:48;;;;;;;17.50;10.40;;;;;;;1.63;78.81;98108.23;130694;1261;107439;-77
2023/03/09 04:56:54;;;;;;;15.20;9.30;;;;;;;1.62;78.82;98112.08;130603;1260;108132;-77
2023/03/09 05:00:07;;;;;;;15.00;9.40;;;;;;;1.62;78.95;98118.85;130563;1260;106546;-77
2023/03/09 05:03:14;;;;;;;16.20;10.00;;;;;;;1.65;79.10;98119.80;130535;1260;107461;-77
2023/03/09 05:06:24;;;;;;;15.40;10.10;;;;;;;1.66;78.89;98121.43;130488;1261;108575;-77
2023/03/09 05:09:31;;;;;;;16.10;10.60;;;;;;;1.67;78.89;98119.58;130372;1256;107562;-73
2023/03/09 05:12:37;;;;;;;16.20;10.70;;;;;;;1.66;78.88;98122.50;130619;1261;107441;-77
2023/03/09 05:15:45;;;;;;;20.40;11.00;;;;;;;1.66;78.98;98124.60;130575;1256;107412;-78
2023/03/09 05:18:53;;;;;;;19.80;11.10;;;;;;;1.67;78.95;98123.23;130518;1261;107473;-77
2023/03/09 05:22:02;;;;;;;17.30;10.40;;;;;;;1.65;78.99;98119.41;130500;1256;107540;-76
2023/03/09 05:25:10;;;;;;;17.00;11.00;;;;;;;1.61;79.02;98122.15;130531;1272;106399;-77
2023/03/09 05:28:16;;;;;;;18.10;11.50;;;;;;;1.57;79.15;98118.24;130553;1260;107457;-72
2023/03/09 05:31:25;;;;;;;16.10;9.60;;;;;;;1.57;79.36;98114.38;130535;1259;107778;-74
2023/03/09 05:34:32;;;;;;;18.10;11.30;;;;;;;1.64;79.37;98115.30;130546;1260;107568;-77
2023/03/09 05:37:44;;;;;;;16.70;11.00;;;;;;;1.68;79.47;98111.91;130443;1262;107557;-77
2023/03/09 05:40:54;;;;;;;16.40;11.00;;;;;;;1.72;79.23;98113.13;130477;1260;107475;-76
2023/03/09 05:44:02;;;;;;;22.70;12.80;;;;;;;1.72;79.26;98120.11;130498;1256;106515;-77
2023/03/09 05:47:09;;;;;;;18.70;11.70;;;;;;;1.72;79.35;98128.39;130473;1261;107600;-75
2023/03/09 05:50:15;;;;;;;20.10;12.60;;;;;;;1.70;79.33;98134.70;130395;1261;108753;-75
2023/03/09 05:53:21;;;;;;;23.70;12.90;;;;;;;1.70;79.34;98131.25;130705;1261;107495;-76
2023/03/09 05:56:27;;;;;;;21.00;12.20;;;;;;;1.70;79.43;98130.34;130621;1260;107609;-76
2023/03/09 05:59:37;;;;;;;20.40;12.50;;;;;;;1.70;79.46;98131.23;130663;1270;107369;-75
2023/03/09 06:02:44;;;;;;;16.50;10.30;;;;;;;1.75;79.56;98137.87;130570;1260;107487;-76
2023/03/09 06:06:02;;;;;;;15.90;10.90;;;;;;;1.83;79.52;98139.11;130687;1260;107574;-77
2023/03/09 06:09:08;;;;;;;20.40;11.60;;;;;;;1.90;79.56;98135.59;130369;1256;107396;-77
2023/03/09 06:12:17;;;;;;;21.40;12.00;;;;;;;1.93;79.69;98132.96;130514;1276;107558;-76
2023/03/09 06:15:23;;;;;;;18.80;12.00;;;;;;;1.98;79.58;98138.83;130364;1261;107553;-76
2023/03/09 06:18:28;;;;;;;16.40;11.10;;;;;;;2.02;79.50;98139.38;130694;1261;106255;-76
2023/03/09 06:21:35;;;;;;;21.40;12.70;;;;;;;2.01;79.44;98134.55;130544;1261;107558;-77
2023/03/09 06:24:42;;;;;;;20.40;12.90;;;;;;;2.02;79.22;98134.11;130453;1261;107562;-77
2023/03/09 06:27:48;;;;;;;23.00;14.00;;;;;;;1.96;79.36;98129.86;130632;1260;107577;-77
2023/03/09 06:30:56;;;;;;;19.40;12.90;;;;;;;1.98;79.37;98132.20;130761;1258;107468;-77
2023/03/09 06:34:03;;;;;;;19.20;11.30;;;;;;;2.02;79.53;98134.27;130563;1261;107533;-77
2023/03/09 06:37:09;;;;;;;18.10;11.70;;;;;;;2.10;79.36;98133.10;130661;1256;107479;-75
2023/03/09 06:40:15;;;;;;;19.10;11.70;;;;;;;2.17;79.26;98134.02;130507;1260;107563;-77
2023/03/09 06:43:22;;;;;;;18.10;11.00;;;;;;;2.21;79.00;98135.00;130589;1260;107573;-77
2023/03/09 06:46:28;;;;;;;16.00;10.60;;;;;;;2.19;78.97;98135.59;130467;1275;107666;-75
2023/03/09 06:49:34;;;;;;;16.30;10.60;;;;;;;2.16;78.82;98137.77;130560;1259;107518;-75
2023/03/09 06:52:45;;;;;;;15.20;10.70;;;;;;;2.12;79.11;98139.27;130587;1260;107537;-77
2023/03/09 06:55:51;;;;;;;15.40;10.00;;;;;;;2.08;79.09;98139.08;130515;1260;107606;-77
2023/03/09 06:58:57;;;;;;;14.90;9.90;;;;;;;2.09;79.26;98140.61;130508;1260;107526;-76
2023/03/09 07:02:04;;;;;;;16.90;9.90;;;;;;;2.08;78.97;98138.54;130535;1261;107458;-77
2023/03/09 07:05:11;;;;;;;15.40;9.50;;;;;;;2.07;79.03;98131.52;130457;1261;107540;-76
2023/03/09 07:08:17;;;;;;;12.90;8.30;;;;;;;2.12;79.00;98136.41;130440;1260;108653;-76
2023/03/09 07:11:23;;;;;;;12.20;8.10;;;;;;;2.24;78.84;98137.46;130410;1256;107269;-77
2023/03/09 07:14:29;;;;;;;13.30;8.90;;;;;;;2.36;78.79;98140.16;130458;1258;106865;-76
2023/03/09 07:17:36;;;;;;;13.70;8.90;;;;;;;2.48;78.51;98140.44;130705;1260;107620;-75
2023/03/09 07:20:42;;;;;;;13.30;8.70;;;;;;;2.46;78.44;98139.55;130678;1258;107457;-76
2023/03/09 07:23:48;;;;;;;13.50;8.40;;;;;;;2.51;78.58;98139.24;130683;1255;105812;-76
2023/03/09 07:26:54;;;;;;;15.10;9.20;;;;;;;2.53;78.42;98138.08;130674;1260;107370;-76
2023/03/09 07:30:00;;;;;;;12.90;9.40;;;;;;;2.61;78.64;98137.34;130604;1256;106777;-76
2023/03/09 07:33:06;;;;;;;12.60;8.50;;;;;;;2.70;78.41;98141.28;130584;1256;106456;-74
2023/03/09 07:36:12;;;;;;;12.20;8.40;;;;;;;2.72;78.06;98142.65;130645;1260;107543;-77
2023/03/09 07:39:17;;;;;;;13.10;8.70;;;;;;;2.67;78.22;98145.28;130521;1256;107262;-76
2023/03/09 07:42:23;;;;;;;12.80;8.30;;;;;;;2.64;78.23;98144.96;130483;1261;107550;-76
2023/03/09 07:45:40;;;;;;;13.30;8.70;;;;;;;2.64;78.60;98151.94;130381;1260;106574;-76
2023/03/09 07:48:47;;;;;;;12.70;8.10;;;;;;;2.70;78.40;98155.54;130541;1261;108796;-77
2023/03/09 07:51:53;;;;;;;12.90;8.60;;;;;;;2.70;78.26;98148.02;130538;1256;107543;-75
2023/03/09 07:55:00;;;;;;;13.10;8.80;;;;;;;2.75;78.26;98145.89;130726;1260;106376;-75
2023/03/09 07:58:06;;;;;;;12.00;8.80;;;;;;;2.77;78.14;98151.17;130810;1261;107472;-76
2023/03/09 08:01:17;;;;;;;13.60;9.40;;;;;;;2.72;78.10;98150.58;130568;1256;107544;-77
2023/03/09 08:04:23;;;;;;;13.30;9.20;;;;;;;2.70;78.28;98151.35;130559;1256;107562;-77
2023/03/09 08:07:28;;;;;;;13.90;9.70;;;;;;;2.71;78.20;98154.19;130471;1260;107589;-77
2023/03/09 08:10:35;;;;;;;13.10;9.60;;;;;;;2.72;78.09;98153.24;130529;1262;107145;-78
2023/03/09 08:13:41;;;;;;;16.80;11.10;;;;;;;2.71;78.21;98155.48;130567;1258;107576;-76
2023/03/09 08:16:46;;;;;;;15.50;10.50;;;;;;;2.73;78.21;98153.34;130543;1258;107450;-77
2023/03/09 08:19:52;;;;;;;17.00;11.30;;;;;;;2.74;78.24;98156.38;130701;1256;107562;-76
2023/03/09 08:22:58;;;;;;;18.00;12.00;;;;;;;2.75;78.24;98156.62;130526;1260;108131;-76
2023/03/09 08:26:04;;;;;;;17.10;10.50;;;;;;;2.74;78.06;98158.10;130467;1256;107562;-76
2023/03/09 08:29:10;;;;;;;14.40;9.20;;;;;;;2.70;78.09;98164.16;130598;1261;108671;-76
2023/03/09 08:32:16;;;;;;;15.30;10.60;;;;;;;2.71;78.19;98154.21;130855;1260;107553;-76
2023/03/09 08:35:23;;;;;;;15.20;10.50;;;;;;;2.74;78.00;98150.89;130674;1256;107362;-76
2023/03/09 08:38:28;;;;;;;16.00;10.00;;;;;;;2.78;78.34;98145.15;130697;1270;106250;-76
2023/03/09 08:41:34;;;;;;;15.20;10.30;;;;;;;2.88;78.02;98148.29;130699;1259;107549;-74
2023/03/09 08:44:41;;;;;;;15.20;9.80;;;;;;;2.95;77.81;98148.45;130443;1260;105558;-73
2023/03/09 08:47:47;;;;;;;14.40;9.90;;;;;;;3.02;77.79;98140.94;130395;1259;107567;-73
2023/03/09 08:50:52;;;;;;;14.70;9.90;;;;;;;3.21;78.04;98140.53;130437;1260;107539;-73
2023/03/09 08:53:58;;;;;;;13.80;9.70;;;;;;;3.36;77.68;98135.97;130448;1260;107576;-73
2023/03/09 08:57:04;;;;;;;15.00;10.90;;;;;;;3.49;77.45;98135.39;130351;1268;107550;-71
2023/03/09 09:00:14;;;;;;;16.10;10.80;;;;;;;3.62;77.34;98128.54;130439;1261;107575;-73
2023/03/09 09:03:19;;;;;;;15.70;10.60;;;;;;;3.78;77.24;98142.16;130503;1256;108560;-73
2023/03/09 09:06:26;;;;;;;14.50;10.80;;;;;;;3.94;77.24;98143.84;130479;1260;108476;-72
2023/03/09 09:09:31;;;;;;;13.90;10.70;;;;;;;4.07;76.82;98145.46;130546;1256;107572;-74
2023/03/09 09:12:37;;;;;;;14.10;10.60;;;;;;;4.17;77.05;98146.50;130504;1260;107576;-74
2023/03/09 09:15:43;;;;;;;16.90;11.40;;;;;;;4.27;76.27;98154.27;130571;1260;107517;-75
2023/03/09 09:18:49;;;;;;;16.40;11.30;;;;;;;4.26;76.38;98156.11;130647;1256;108490;-71
2023/03/09 09:21:56;;;;;;;15.40;10.90;;;;;;;4.27;76.42;98150.33;130559;1256;106427;-73
2023/03/09 09:25:01;;;;;;;15.70;11.00;;;;;;;4.27;76.58;98157.42;130699;1256;108681;-71
2023/03/09 09:28:07;;;;;;;16.80;11.10;;;;;;;4.19;76.01;98163.13;130630;1261;107113;-72
2023/03/09 09:31:17;;;;;;;16.70;10.90;;;;;;;4.09;76.11;98167.73;130517;1260;107316;-73
2023/03/09 09:34:23;;;;;;;17.10;11.40;;;;;;;4.02;76.10;98173.42;130561;1260;108273;-79
2023/03/09 09:37:30;;;;;;;15.90;11.10;;;;;;;3.91;76.24;98173.35;130679;1256;106993;-72
2023/03/09 09:40:37;;;;;;;15.80;10.60;;;;;;;3.89;76.40;98180.73;130513;1256;107545;-81
2023/03/09 09:43:44;;;;;;;16.20;10.50;;;;;;;3.88;76.23;98184.85;130568;1261;107547;-77
2023/03/09 09:46:52;;;;;;;16.70;10.80;;;;;;;3.89;76.18;98186.08;130589;1261;107439;-76
2023/03/09 09:50:01;;;;;;;15.70;10.40;;;;;;;3.87;76.08;98191.21;130665;1260;106522;-74
2023/03/09 09:53:17;;;;;;;17.50;11.80;;;;;;;3.86;76.10;98195.14;130693;1256;107432;-74
2023/03/09 09:56:27;;;;;;;17.00;11.60;;;;;;;3.84;75.81;98199.89;130578;1261;107558;-76
2023/03/09 09:59:40;;;;;;;17.40;12.70;;;;;;;3.85;75.92;98203.54;130668;1255;107654;-74
2023/03/09 10:03:01;;;;;;;17.20;11.90;;;;;;;3.85;75.66;98208.08;130621;1255;107573;-73
2023/03/09 10:06:13;;;;;;;14.80;11.30;;;;;;;3.86;75.70;98209.59;130565;1260;108745;-72
2023/03/09 10:09:22;;;;;;;;;;;;;;;3.91;75.68;98213.41;130766;1261;107486;-73
2023/03/09 10:12:29;;;;;;;16.20;10.70;;;;;;;3.90;75.55;98208.56;131264;1271;107535;-77
2023/03/09 10:15:38;;;;;;;17.10;12.20;;;;;;;3.87;75.50;98211.56;131144;1260;108432;-75
2023/03/09 10:18:48;;;;;;;18.30;12.90;;;;;;;3.85;75.52;98210.02;130679;1256;108487;-75
2023/03/09 10:21:59;;;;;;;21.50;14.40;;;;;;;3.87;75.81;98217.50;130925;1260;108844;-73
2023/03/09 10:25:12;;;;;;;17.50;11.80;;;;;;;3.86;75.79;98220.14;130760;1256;107363;-74
2023/03/09 10:28:21;;;;;;;18.80;12.80;;;;;;;3.84;75.93;98219.83;130775;1256;107681;-75
2023/03/09 10:31:35;;;;;;;20.10;14.00;;;;;;;3.88;75.89;98216.20;130588;1256;108620;-79
2023/03/09 10:34:54;;;;;;;21.90;13.60;;;;;;;3.98;76.16;98217.69;130669;1256;107625;-80
2023/03/09 10:38:00;;;;;;;18.20;12.50;;;;;;;4.10;76.04;98214.91;130638;1259;107554;-78
2023/03/09 10:41:14;;;;;;;20.20;12.80;;;;;;;4.22;75.67;98216.22;130640;1261;106553;-80
2023/03/09 10:44:21;;;;;;;15.70;11.20;;;;;;;4.25;75.60;98215.86;130817;1260;108526;-76
2023/03/09 10:47:27;;;;;;;16.20;11.00;;;;;;;4.21;75.10;98215.27;130597;1258;106501;-78
2023/03/09 10:50:35;;;;;;;23.10;14.00;;;;;;;4.18;75.64;98215.70;130621;1259;108605;-77
2023/03/09 10:53:44;;;;;;;18.00;13.00;;;;;;;4.23;75.52;98217.35;130530;1261;108557;-78
2023/03/09 10:56:49;;;;;;;19.10;12.40;;;;;;;4.29;75.34;98223.98;130736;1256;107421;-82
2023/03/09 11:00:07;;;;;;;23.90;16.40;;;;;;;4.38;75.43;98226.29;130805;1255;108011;-78
2023/03/09 11:03:22;;;;;;;19.50;13.60;;;;;;;4.50;75.22;98231.70;130826;1260;107650;-81
2023/03/09 11:06:32;;;;;;;17.90;12.60;;;;;;;4.51;75.11;98235.60;130690;1262;108657;-79
2023/03/09 11:09:48;;;;;;;16.90;13.20;;;;;;;4.50;75.02;98240.85;130606;1260;108096;-79
2023/03/09 11:12:55;;;;;;;18.90;13.80;;;;;;;4.51;74.89;98249.16;130536;1257;106113;-83
2023/03/09 11:16:13;;;;;;;18.40;12.80;;;;;;;4.47;75.17;98250.84;130699;1256;107223;-81
2023/03/09 11:19:20;;;;;;;17.30;12.90;;;;;;;4.42;74.87;98257.38;130677;1256;108763;-78
2023/03/09 11:22:27;;;;;;;19.10;13.30;;;;;;;4.29;74.91;98259.83;130528;1260;107407;-77
2023/03/09 11:25:57;;;;;;;17.10;13.20;;;;;;;4.17;74.95;98264.55;130622;1260;106235;-81
2023/03/09 11:29:15;;;;;;;15.30;11.40;;;;;;;4.08;75.08;98266.23;130485;1260;107413;-81
2023/03/09 11:32:21;;;;;;;19.20;13.50;;;;;;;4.05;75.14;98270.46;130478;1261;107555;-79
2023/03/09 11:35:27;;;;;;;18.60;12.90;;;;;;;4.03;75.37;98274.80;130519;1261;107511;-79
2023/03/09 11:38:33;;;;;;;17.60;12.90;;;;;;;3.90;75.47;98274.95;130531;1256;107459;-78
2023/03/09 11:41:43;;;;;;;23.40;17.40;;;;;;;3.76;75.63;98274.15;130653;1261;107603;-78
2023/03/09 11:44:50;;;;;;;18.20;14.20;;;;;;;3.63;76.11;98277.94;130633;1260;107130;-82
2023/03/09 11:47:59;;;;;;;20.50;15.90;;;;;;;3.63;75.78;98277.21;130671;1262;107548;-82
2023/03/09 11:51:10;;;;;;;19.20;13.90;;;;;;;3.66;75.72;98279.31;130646;1260;107430;-80
2023/03/09 11:54:25;;;;;;;15.90;11.70;;;;;;;3.75;75.92;98279.52;130629;1256;106389;-81
2023/03/09 11:57:34;;;;;;;19.00;12.90;;;;;;;3.85;75.83;98281.79;130664;1261;106544;-79
2023/03/09 12:00:44;;;;;;;16.50;13.00;;;;;;;3.91;75.43;98282.20;130657;1261;107468;-78
2023/03/09 12:03:58;;;;;;;17.50;12.40;;;;;;;3.83;75.29;98291.32;130600;1260;107485;-81
2023/03/09 12:07:08;;;;;;;14.40;10.50;;;;;;;3.77;75.41;98294.36;130592;1260;107538;-80
2023/03/09 12:10:22;;;;;;;14.80;10.00;;;;;;;3.77;75.36;98295.64;130552;1261;107617;-80
2023/03/09 12:13:34;;;;;;;17.50;12.10;;;;;;;3.77;75.52;98296.90;130396;1256;107267;-79
2023/03/09 12:16:44;;;;;;;19.30;12.50;;;;;;;3.82;75.21;98300.71;130569;1260;106995;-78
2023/03/09 12:19:53;;;;;;;18.10;11.70;;;;;;;3.87;75.10;98305.88;130452;1256;107266;-78
2023/03/09 12:22:59;;;;;;;16.90;12.50;;;;;;;3.89;75.10;98307.80;130530;1261;107537;-75
2023/03/09 12:26:20;;;;;;;15.60;11.10;;;;;;;3.91;75.06;98315.27;130563;1256;107556;-77
2023/03/09 12:29:31;;;;;;;14.60;9.70;;;;;;;3.88;74.88;98321.95;130705;1257;107544;-78
2023/03/09 12:32:43;;;;;;;13.90;10.40;;;;;;;3.71;75.08;98329.25;130527;1267;107544;-78
2023/03/09 12:36:21;;;;;;;16.30;9.80;;;;;;;3.64;75.36;98334.13;130526;1261;107473;-79
2023/03/09 12:39:44;;;;;;;11.60;8.50;;;;;;;3.65;75.04;98344.30;130575;1260;107988;-76
2023/03/09 12:42:53;;;;;;;13.70;9.10;;;;;;;3.58;75.09;98357.91;130633;1260;107620;-77
2023/03/09 12:46:35;;;;;;;13.20;8.90;;;;;;;3.57;75.15;98363.26;130514;1260;107528;-76
2023/03/09 12:49:42;;;;;;;;;;;;;;;3.50;74.99;98368.10;130459;1261;106142;-79
2023/03/09 12:53:13;;;;;;;11.30;8.10;;;;;;;3.48;75.15;98366.02;130603;1261;107592;-76
2023/03/09 12:56:19;;;;;;;13.70;8.70;;;;;;;3.62;75.01;98365.23;130602;1261;108736;-77
2023/03/09 12:59:28;;;;;;;11.30;8.40;;;;;;;3.83;75.01;98360.80;130509;1261;107452;-76
2023/03/09 13:02:37;;;;;;;9.50;7.10;;;;;;;4.05;74.66;98359.06;130592;1256;107502;-75
2023/03/09 13:05:47;;;;;;;10.10;7.30;;;;;;;4.19;74.88;98360.45;130564;1256;108118;-76
2023/03/09 13:08:56;;;;;;;7.40;5.70;;;;;;;4.26;74.97;98356.68;130554;1261;107629;-73
2023/03/09 13:12:05;;;;;;;9.40;6.60;;;;;;;4.24;74.30;98371.05;130501;1261;107544;-76
2023/03/09 13:15:26;;;;;;;9.50;6.80;;;;;;;4.13;74.32;98402.63;130582;1261;107517;-76
2023/03/09 13:18:32;;;;;;;8.00;6.10;;;;;;;4.04;74.52;98416.86;130572;1262;107540;-77
2023/03/09 13:21:47;;;;;;;9.10;6.00;;;;;;;3.97;74.46;98425.53;130588;1261;108708;-74
2023/03/09 13:25:12;;;;;;;11.80;7.80;;;;;;;3.81;74.35;98439.80;130441;1261;108718;-79
2023/03/09 13:28:46;;;;;;;11.20;7.80;;;;;;;3.67;74.56;98448.05;130469;1261;107566;-74
2023/03/09 13:31:52;;;;;;;11.30;7.60;;;;;;;3.49;74.94;98452.83;130524;1257;108510;-76
2023/03/09 13:35:00;;;;;;;10.90;7.20;;;;;;;3.42;74.87;98454.02;130687;1262;107574;-76
2023/03/09 13:38:15;;;;;;;10.50;7.40;;;;;;;3.36;74.68;98461.48;130676;1261;107542;-76
2023/03/09 13:41:24;;;;;;;10.00;7.80;;;;;;;3.30;74.55;98463.97;130608;1256;106440;-73
2023/03/09 13:44:31;;;;;;;12.40;8.40;;;;;;;3.28;74.58;98468.03;130596;1256;107520;-76
2023/03/09 13:47:38;;;;;;;12.00;8.30;;;;;;;3.27;74.73;98468.02;130585;1258;107888;-74
2023/03/09 13:50:46;;;;;;;13.00;8.60;;;;;;;3.23;74.63;98468.02;130561;1260;106521;-75
2023/03/09 13:53:52;;;;;;;11.00;7.80;;;;;;;3.20;74.76;98476.09;130682;1258;107593;-73
2023/03/09 13:57:12;;;;;;;11.60;8.00;;;;;;;3.17;74.69;98484.98;130563;1256;107569;-76
2023/03/09 14:00:22;;;;;;;12.60;8.50;;;;;;;3.23;75.17;98503.41;130688;1255;109278;-75
2023/03/09 14:03:30;;;;;;;12.60;8.90;;;;;;;3.27;74.67;98506.11;130552;1258;107650;-75
2023/03/09 14:06:37;;;;;;;12.80;9.00;;;;;;;3.23;74.28;98507.95;130544;1261;107573;-75
2023/03/09 14:09:42;;;;;;;14.00;8.90;;;;;;;3.19;74.64;98514.89;130669;1256;108691;-76
2023/03/09 14:12:52;;;;;;;15.70;10.70;;;;;;;3.17;74.61;98527.19;130536;1256;107244;-75
2023/03/09 14:16:07;;;;;;;19.10;11.80;;;;;;;3.14;74.61;98532.66;130596;1258;107568;-74
2023/03/09 14:19:25;;;;;;;20.40;14.20;;;;;;;3.07;74.53;98540.16;130531;1256;107633;-75
2023/03/09 14:22:32;;;;;;;22.70;12.80;;;;;;;3.03;74.38;98542.18;130511;1261;107553;-78
2023/03/09 14:25:40;;;;;;;19.10;12.00;;;;;;;3.00;74.38;98529.08;130825;1269;108489;-76